Time;durP1;ratioP1;P1;durP2;ratioP2;P2;SDS_P1;SDS_P2;PMS_P1;PMS_P2;Temp;Humidity;BMP_temperature;BMP_pressure;BME280_temperature;BME280_humidity;BME280_pressure;Samples;Min_cycle;Max_cycle;Signal;HPM_P1;HPM_P2
2023/04/17 00:00:01;;;;;;;15.00;7.35;;;6.60;99.90;;;;;;2117241;28;20259;-66
2023/04/17 00:01:22;;;;;;;14.18;7.60;;;6.50;99.90;;;;;;2102526;28;20199;-66
2023/04/17 00:02:43;;;;;;;16.70;8.60;;;6.40;99.90;;;;;;2103133;28;20649;-66
2023/04/17 00:04:09;;;;;;;14.13;8.32;;;6.40;99.90;;;;;;2109279;28;20212;-66
2023/04/17 00:05:32;;;;;;;13.45;8.18;;;6.40;99.90;;;;;;2112887;28;20190;-66
2023/04/17 00:06:53;;;;;;;15.43;8.27;;;6.30;99.90;;;;;;2116954;28;20186;-67
2023/04/17 00:08:16;;;;;;;16.33;8.93;;;6.40;99.90;;;;;;2116780;28;20205;-65
2023/04/17 00:09:38;;;;;;;16.63;9.10;;;6.40;99.90;;;;;;2110990;28;20206;-66
2023/04/17 00:11:00;;;;;;;13.63;8.20;;;6.40;99.90;;;;;;2117879;28;20331;-66
2023/04/17 00:12:21;;;;;;;15.30;8.05;;;6.30;99.90;;;;;;2111643;28;20253;-67
2023/04/17 00:13:42;;;;;;;14.07;7.95;;;6.20;99.90;;;;;;2112241;28;20179;-68
2023/04/17 00:15:04;;;;;;;14.32;7.80;;;6.30;99.90;;;;;;2114213;28;20218;-66
2023/04/17 00:16:26;;;;;;;16.70;8.05;;;6.30;99.90;;;;;;2108187;28;20197;-67
2023/04/17 00:17:48;;;;;;;14.55;7.85;;;6.10;99.90;;;;;;2109605;28;20228;-66
2023/04/17 00:19:11;;;;;;;16.58;7.75;;;6.10;99.90;;;;;;2112670;28;20726;-66
2023/04/17 00:20:34;;;;;;;13.88;7.43;;;6.20;99.90;;;;;;2113151;28;20197;-66
2023/04/17 00:21:55;;;;;;;12.40;7.13;;;6.30;99.90;;;;;;2112471;28;20664;-67
2023/04/17 00:23:17;;;;;;;13.77;7.85;;;6.40;99.90;;;;;;2121392;28;20747;-67
2023/04/17 00:24:38;;;;;;;11.63;7.38;;;6.40;99.90;;;;;;2105594;28;20207;-66
2023/04/17 00:26:01;;;;;;;12.50;7.18;;;6.50;99.90;;;;;;2117755;28;20239;-67
2023/04/17 00:27:22;;;;;;;13.32;7.55;;;6.40;99.90;;;;;;2114380;28;20247;-66
2023/04/17 00:28:43;;;;;;;11.50;6.70;;;6.50;99.90;;;;;;2111764;28;20186;-67
2023/04/17 00:30:06;;;;;;;11.60;6.47;;;6.50;99.90;;;;;;2111523;28;20192;-68
2023/04/17 00:31:30;;;;;;;12.55;6.47;;;6.60;99.90;;;;;;2112548;28;20697;-67
2023/04/17 00:32:51;;;;;;;12.25;6.80;;;6.50;99.90;;;;;;2112610;28;20638;-66
2023/04/17 00:34:12;;;;;;;9.10;5.68;;;6.50;99.90;;;;;;2118705;28;20270;-67
2023/04/17 00:35:33;;;;;;;10.50;5.93;;;6.50;99.90;;;;;;2119586;28;20197;-65
2023/04/17 00:36:54;;;;;;;9.43;5.80;;;6.40;99.90;;;;;;2100565;28;20197;-66
2023/04/17 00:38:16;;;;;;;9.80;5.82;;;6.40;99.90;;;;;;2103361;28;20216;-65
2023/04/17 00:39:37;;;;;;;9.35;5.60;;;6.30;99.90;;;;;;2111392;28;20218;-64
2023/04/17 00:40:58;;;;;;;11.55;5.25;;;6.40;99.90;;;;;;2111751;28;20218;-67
2023/04/17 00:42:20;;;;;;;11.90;5.65;;;6.40;99.90;;;;;;2113538;28;20191;-66
2023/04/17 00:43:41;;;;;;;8.57;5.40;;;6.40;99.90;;;;;;2113754;28;20186;-68
2023/04/17 00:45:04;;;;;;;10.30;5.90;;;6.40;99.90;;;;;;2111851;28;20186;-67
2023/04/17 00:46:26;;;;;;;10.85;5.63;;;6.50;99.90;;;;;;2115225;28;20186;-67
2023/04/17 00:47:48;;;;;;;8.25;5.25;;;6.50;99.90;;;;;;2102443;28;20202;-67
2023/04/17 00:49:11;;;;;;;10.18;6.10;;;6.50;99.90;;;;;;2106039;28;20246;-67
2023/04/17 00:50:32;;;;;;;7.88;4.65;;;6.50;99.90;;;;;;2111427;28;20216;-67
2023/04/17 00:51:54;;;;;;;8.00;4.70;;;6.50;99.90;;;;;;2105380;28;20701;-66
2023/04/17 00:53:16;;;;;;;8.38;4.93;;;6.60;99.90;;;;;;2113243;27;20190;-67
2023/04/17 00:54:37;;;;;;;10.55;5.13;;;6.50;99.90;;;;;;2111327;28;20674;-67
2023/04/17 00:56:00;;;;;;;10.88;5.30;;;6.50;99.90;;;;;;2104400;28;20285;-67
2023/04/17 00:57:24;;;;;;;9.63;5.13;;;6.40;99.90;;;;;;2106446;28;20284;-67
2023/04/17 00:58:45;;;;;;;11.38;5.57;;;6.40;99.90;;;;;;2107265;28;20205;-67
2023/04/17 01:00:08;;;;;;;8.07;5.10;;;6.40;99.90;;;;;;2107913;28;20213;-66
2023/04/17 01:01:29;;;;;;;10.00;5.50;;;6.50;99.90;;;;;;2117336;27;20688;-67
2023/04/17 01:02:50;;;;;;;10.73;5.70;;;6.50;99.90;;;;;;2106703;28;20668;-67
2023/04/17 01:04:11;;;;;;;11.98;6.07;;;6.40;99.90;;;;;;2103095;28;20290;-67
2023/04/17 01:05:34;;;;;;;10.48;5.38;;;6.30;99.90;;;;;;2119180;27;20659;-67
2023/04/17 01:06:55;;;;;;;8.80;5.43;;;6.30;99.90;;;;;;2112706;28;20210;-66
2023/04/17 01:08:18;;;;;;;15.23;6.55;;;6.30;99.90;;;;;;2099859;28;20197;-67
2023/04/17 01:09:39;;;;;;;12.07;6.60;;;6.30;99.90;;;;;;2111693;28;20225;-66
2023/04/17 01:11:00;;;;;;;11.32;5.95;;;6.40;99.90;;;;;;2114369;28;20190;-65
2023/04/17 01:12:24;;;;;;;14.13;6.50;;;6.40;99.90;;;;;;2113869;28;20197;-66
2023/04/17 01:13:50;;;;;;;14.07;6.95;;;6.40;99.90;;;;;;2117310;27;20285;-67
2023/04/17 01:15:11;;;;;;;13.75;7.40;;;6.50;99.90;;;;;;2107544;28;20186;-67
2023/04/17 01:16:32;;;;;;;14.63;6.70;;;6.50;99.90;;;;;;2114741;27;20201;-69
2023/04/17 01:17:53;;;;;;;20.25;8.27;;;6.60;99.90;;;;;;2120793;27;20277;-66
2023/04/17 01:19:15;;;;;;;18.27;8.07;;;6.60;99.90;;;;;;2110598;28;20210;-65
2023/04/17 01:20:36;;;;;;;28.55;9.77;;;6.60;99.90;;;;;;2105368;28;20379;-67
2023/04/17 01:21:57;;;;;;;31.88;10.98;;;6.60;99.90;;;;;;2108217;28;20190;-66
2023/04/17 01:23:20;;;;;;;22.52;9.43;;;6.60;99.90;;;;;;2111450;28;20671;-66
2023/04/17 01:24:41;;;;;;;35.72;10.73;;;6.60;99.90;;;;;;2114941;28;20227;-66
2023/04/17 01:26:02;;;;;;;25.27;9.73;;;6.70;99.90;;;;;;2110063;28;20263;-65
2023/04/17 01:27:23;;;;;;;40.13;10.98;;;6.60;99.90;;;;;;2101400;28;20200;-66
2023/04/17 01:28:52;;;;;;;19.52;9.07;;;6.70;99.90;;;;;;2097305;28;20200;-66
2023/04/17 01:30:14;;;;;;;22.00;10.10;;;6.70;99.90;;;;;;2110467;28;20190;-66
2023/04/17 01:31:36;;;;;;;43.38;12.98;;;6.80;99.90;;;;;;2106121;28;20197;-67
2023/04/17 01:32:57;;;;;;;48.65;12.43;;;6.70;99.90;;;;;;2106366;28;20199;-66
2023/04/17 01:34:18;;;;;;;33.58;11.35;;;6.70;99.90;;;;;;2107633;28;20280;-66
2023/04/17 01:35:39;;;;;;;29.73;8.95;;;6.70;99.90;;;;;;2113706;27;20197;-66
2023/04/17 01:37:00;;;;;;;24.38;10.05;;;6.60;99.90;;;;;;2118844;27;20221;-67
2023/04/17 01:38:21;;;;;;;27.13;11.18;;;6.70;99.90;;;;;;2111238;28;20198;-67
2023/04/17 01:39:42;;;;;;;30.13;9.05;;;6.70;99.90;;;;;;2111331;28;20190;-67
2023/04/17 01:41:08;;;;;;;30.65;9.38;;;6.70;99.90;;;;;;2115457;27;20254;-66
2023/04/17 01:42:29;;;;;;;30.65;11.40;;;6.70;99.90;;;;;;2101583;28;20773;-65
2023/04/17 01:43:50;;;;;;;26.20;9.18;;;6.70;99.90;;;;;;2101603;28;20191;-66
2023/04/17 01:45:11;;;;;;;15.75;7.95;;;6.80;99.90;;;;;;2105817;28;20715;-66
2023/04/17 01:46:32;;;;;;;20.08;9.10;;;6.70;99.90;;;;;;2104912;28;20198;-66
2023/04/17 01:47:53;;;;;;;17.33;8.43;;;6.80;99.90;;;;;;2115386;27;20302;-66
2023/04/17 01:49:14;;;;;;;16.80;7.40;;;6.80;99.90;;;;;;2121492;27;20217;-67
2023/04/17 01:50:35;;;;;;;14.43;7.53;;;6.70;99.90;;;;;;2118734;27;20276;-67
2023/04/17 01:51:56;;;;;;;16.38;7.57;;;6.70;99.90;;;;;;2115632;27;20273;-66
2023/04/17 01:53:18;;;;;;;13.18;7.78;;;6.70;99.90;;;;;;2117992;27;20710;-67
2023/04/17 01:54:39;;;;;;;14.18;7.72;;;6.80;99.90;;;;;;2111648;28;20217;-67
2023/04/17 01:56:01;;;;;;;15.85;7.57;;;6.70;99.90;;;;;;2105660;28;20237;-69
2023/04/17 01:57:22;;;;;;;14.23;7.80;;;6.80;99.90;;;;;;2101217;28;20194;-67
2023/04/17 01:58:43;;;;;;;12.68;6.78;;;6.70;99.90;;;;;;2093622;28;20264;-67
2023/04/17 02:00:09;;;;;;;13.68;7.18;;;6.50;99.90;;;;;;2117109;27;20201;-67
2023/04/17 02:01:31;;;;;;;10.65;5.95;;;6.50;99.90;;;;;;2113799;27;20660;-67
2023/04/17 02:02:52;;;;;;;13.82;7.43;;;6.60;99.90;;;;;;2106296;28;20204;-69
2023/04/17 02:04:14;;;;;;;11.93;6.65;;;6.50;99.90;;;;;;2102260;28;20271;-67
2023/04/17 02:05:35;;;;;;;11.45;5.78;;;6.60;99.90;;;;;;2111129;28;20194;-67
2023/04/17 02:06:56;;;;;;;15.43;6.80;;;6.60;99.90;;;;;;2113337;28;20187;-67
2023/04/17 02:08:20;;;;;;;12.82;5.95;;;6.60;99.90;;;;;;2121478;27;20221;-69
2023/04/17 02:09:41;;;;;;;12.27;5.95;;;6.60;99.90;;;;;;2119425;27;20187;-67
2023/04/17 02:11:02;;;;;;;10.93;5.90;;;6.70;99.90;;;;;;2120161;27;20261;-68
2023/04/17 02:12:23;;;;;;;12.48;5.95;;;6.70;99.90;;;;;;2113090;28;20269;-67
2023/04/17 02:13:44;;;;;;;10.38;5.85;;;6.70;99.90;;;;;;2118897;27;20185;-67
2023/04/17 02:15:06;;;;;;;8.15;5.25;;;6.70;99.90;;;;;;2120449;27;20186;-67
2023/04/17 02:16:30;;;;;;;9.77;6.75;;;6.60;99.90;;;;;;2109534;28;20575;-67
2023/04/17 02:17:51;;;;;;;7.55;4.85;;;6.50;99.90;;;;;;2119871;27;20189;-67
2023/04/17 02:19:12;;;;;;;8.85;5.22;;;6.50;99.90;;;;;;2103351;28;20218;-67
2023/04/17 02:20:35;;;;;;;8.07;4.70;;;6.50;99.90;;;;;;2098666;28;20363;-67
2023/04/17 02:21:57;;;;;;;9.55;5.53;;;6.50;99.90;;;;;;2106788;28;20206;-67
2023/04/17 02:23:18;;;;;;;9.48;5.20;;;6.40;99.90;;;;;;2111827;27;20641;-67
2023/04/17 02:24:39;;;;;;;8.10;4.88;;;6.40;99.90;;;;;;2113414;28;20196;-67
2023/04/17 02:26:02;;;;;;;9.05;4.82;;;6.50;99.90;;;;;;2113035;28;20696;-67
2023/04/17 02:27:24;;;;;;;8.00;5.10;;;6.50;99.90;;;;;;2113813;28;20213;-66
2023/04/17 02:28:45;;;;;;;10.18;5.55;;;6.60;99.90;;;;;;2120572;27;20185;-66
2023/04/17 02:30:07;;;;;;;10.77;5.90;;;6.70;99.90;;;;;;2120746;27;20690;-68
2023/04/17 02:31:28;;;;;;;11.40;6.05;;;6.60;99.90;;;;;;2111268;28;20611;-66
2023/04/17 02:32:51;;;;;;;10.95;5.45;;;6.50;99.90;;;;;;2118699;27;20192;-67
2023/04/17 02:34:13;;;;;;;11.45;5.97;;;6.60;99.90;;;;;;2105510;28;20183;-67
2023/04/17 02:35:34;;;;;;;11.52;6.05;;;6.60;99.90;;;;;;2111299;27;20196;-69
2023/04/17 02:36:55;;;;;;;12.05;6.40;;;6.60;99.90;;;;;;2117669;27;20209;-69
2023/04/17 02:38:17;;;;;;;17.35;7.57;;;6.60;99.90;;;;;;2099496;28;20187;-66
2023/04/17 02:39:38;;;;;;;14.75;6.28;;;6.60;99.90;;;;;;2101248;28;20461;-67
2023/04/17 02:40:59;;;;;;;13.38;6.32;;;6.50;99.90;;;;;;2109639;28;20690;-66
2023/04/17 02:42:20;;;;;;;11.38;6.53;;;6.50;99.90;;;;;;2111077;28;20195;-66
2023/04/17 02:43:41;;;;;;;10.95;6.43;;;6.50;99.90;;;;;;2112690;28;20186;-66
2023/04/17 02:45:05;;;;;;;11.90;6.63;;;6.30;99.90;;;;;;2107344;28;20229;-66
2023/04/17 02:46:26;;;;;;;14.13;6.10;;;6.20;99.90;;;;;;2117758;27;20207;-66
2023/04/17 02:47:47;;;;;;;14.30;7.65;;;6.20;99.90;;;;;;2106969;28;20219;-66
2023/04/17 02:49:08;;;;;;;16.65;8.07;;;6.20;99.90;;;;;;2105283;28;20980;-65
2023/04/17 02:50:29;;;;;;;13.10;7.05;;;6.10;99.90;;;;;;2115641;27;20192;-66
2023/04/17 02:51:50;;;;;;;16.25;7.45;;;6.10;99.90;;;;;;2113227;28;20698;-66
2023/04/17 02:53:12;;;;;;;15.15;7.28;;;6.10;99.90;;;;;;2113240;28;20243;-66
2023/04/17 02:54:34;;;;;;;14.95;7.57;;;6.20;99.90;;;;;;2113970;28;20572;-67
2023/04/17 02:55:56;;;;;;;15.02;8.13;;;6.20;99.90;;;;;;2108671;28;20194;-67
2023/04/17 02:57:18;;;;;;;14.48;8.02;;;6.30;99.90;;;;;;2108167;28;20272;-66
2023/04/17 02:58:43;;;;;;;14.48;7.95;;;6.30;99.90;;;;;;2100320;28;20262;-66
2023/04/17 03:00:10;;;;;;;18.70;8.68;;;6.30;99.90;;;;;;2100537;28;20206;-66
2023/04/17 03:01:32;;;;;;;13.50;7.63;;;6.40;99.90;;;;;;2113550;27;20190;-66
2023/04/17 03:02:54;;;;;;;17.00;9.27;;;6.40;99.90;;;;;;2120607;27;20228;-67
2023/04/17 03:04:15;;;;;;;15.57;8.98;;;6.40;99.90;;;;;;2116712;27;20231;-67
2023/04/17 03:05:37;;;;;;;18.40;9.13;;;6.40;99.90;;;;;;2103428;28;20206;-67
2023/04/17 03:06:58;;;;;;;17.40;9.18;;;6.40;99.90;;;;;;2111995;27;20281;-67
2023/04/17 03:08:19;;;;;;;18.98;9.38;;;6.40;99.90;;;;;;2104550;28;20262;-65
2023/04/17 03:09:41;;;;;;;18.63;9.80;;;6.40;99.90;;;;;;2113483;27;20189;-68
2023/04/17 03:11:03;;;;;;;15.95;8.25;;;6.40;99.90;;;;;;2118217;27;20186;-66
2023/04/17 03:12:24;;;;;;;18.02;8.70;;;6.40;99.90;;;;;;2119460;27;20193;-69
2023/04/17 03:13:45;;;;;;;23.15;10.07;;;6.50;99.90;;;;;;2120918;27;20544;-66
2023/04/17 03:15:09;;;;;;;13.30;7.75;;;6.50;99.90;;;;;;2108832;28;20191;-66
2023/04/17 03:16:32;;;;;;;16.55;8.50;;;6.40;99.90;;;;;;2107067;28;20203;-68
2023/04/17 03:17:53;;;;;;;19.88;8.73;;;6.50;99.90;;;;;;2113468;27;20573;-67
2023/04/17 03:19:15;;;;;;;17.13;8.98;;;6.50;99.90;;;;;;2114422;28;20300;-67
2023/04/17 03:20:36;;;;;;;16.38;7.63;;;6.60;99.90;;;;;;2117995;27;20209;-66
2023/04/17 03:22:00;;;;;;;15.27;7.93;;;6.50;99.90;;;;;;2113849;28;20185;-66
2023/04/17 03:23:22;;;;;;;14.93;7.80;;;6.60;99.90;;;;;;2111484;28;20198;-67
2023/04/17 03:24:43;;;;;;;17.67;8.70;;;6.60;99.90;;;;;;2106103;28;20197;-67
2023/04/17 03:26:05;;;;;;;14.60;7.78;;;6.60;99.90;;;;;;2110950;28;20262;-67
2023/04/17 03:27:26;;;;;;;12.82;7.53;;;6.60;99.90;;;;;;2107670;28;20182;-66
2023/04/17 03:28:47;;;;;;;11.13;6.75;;;6.60;99.90;;;;;;2101230;28;20195;-66
2023/04/17 03:30:09;;;;;;;15.40;7.55;;;6.60;99.90;;;;;;2106147;28;20214;-69
2023/04/17 03:31:30;;;;;;;13.50;7.55;;;6.40;99.90;;;;;;2102391;28;20233;-66
2023/04/17 03:32:51;;;;;;;12.35;7.55;;;6.60;99.90;;;;;;2109044;28;20246;-66
2023/04/17 03:34:12;;;;;;;15.68;8.85;;;6.60;99.90;;;;;;2112993;28;20201;-67
2023/04/17 03:35:33;;;;;;;14.63;7.80;;;6.60;99.90;;;;;;2116084;27;20190;-67
2023/04/17 03:36:54;;;;;;;14.93;8.98;;;6.50;99.90;;;;;;2117994;27;20375;-67
2023/04/17 03:38:16;;;;;;;16.67;7.75;;;6.60;99.90;;;;;;2104692;28;20191;-67
2023/04/17 03:39:38;;;;;;;15.25;8.30;;;6.50;99.90;;;;;;2110165;28;20202;-65
2023/04/17 03:40:59;;;;;;;18.55;9.02;;;6.40;99.90;;;;;;2117336;28;20236;-66
2023/04/17 03:42:20;;;;;;;16.02;8.65;;;6.30;99.90;;;;;;2111520;28;20267;-67
2023/04/17 03:43:41;;;;;;;17.65;8.52;;;6.20;99.90;;;;;;2115102;27;20193;-67
2023/04/17 03:45:03;;;;;;;18.80;9.00;;;6.30;99.90;;;;;;2116954;28;20217;-67
2023/04/17 03:46:25;;;;;;;18.63;9.68;;;6.40;99.90;;;;;;2114501;28;20308;-67
2023/04/17 03:47:46;;;;;;;17.83;8.82;;;6.40;99.90;;;;;;2113212;28;20278;-67
2023/04/17 03:49:09;;;;;;;20.63;9.77;;;6.30;99.90;;;;;;2106577;28;20209;-66
2023/04/17 03:50:30;;;;;;;22.67;9.98;;;6.40;99.90;;;;;;2111075;28;20189;-67
2023/04/17 03:51:51;;;;;;;23.02;10.35;;;6.30;99.90;;;;;;2115905;28;20194;-66
2023/04/17 03:53:12;;;;;;;25.65;10.57;;;6.30;99.90;;;;;;2115203;28;20236;-67
2023/04/17 03:54:34;;;;;;;21.00;9.52;;;6.30;99.90;;;;;;2109222;28;20215;-66
2023/04/17 03:55:55;;;;;;;26.58;11.52;;;6.30;99.90;;;;;;2115794;28;20198;-67
2023/04/17 03:57:18;;;;;;;22.83;10.45;;;6.20;99.90;;;;;;2120453;27;20338;-66
2023/04/17 03:58:39;;;;;;;24.15;10.32;;;6.20;99.90;;;;;;2100643;28;20298;-66
2023/04/17 04:00:05;;;;;;;26.63;11.38;;;6.20;99.90;;;;;;2114382;28;20276;-67
2023/04/17 04:01:27;;;;;;;20.98;10.75;;;6.20;99.90;;;;;;2116578;28;20194;-67
2023/04/17 04:02:48;;;;;;;31.17;11.70;;;6.30;99.90;;;;;;2117626;28;20249;-67
2023/04/17 04:04:09;;;;;;;25.05;12.55;;;6.30;99.90;;;;;;2115145;28;20575;-66
2023/04/17 04:05:30;;;;;;;24.58;10.85;;;6.30;99.90;;;;;;2117369;28;20193;-66
2023/04/17 04:06:53;;;;;;;27.40;11.38;;;6.30;99.90;;;;;;2106561;28;20205;-66
2023/04/17 04:08:14;;;;;;;25.88;12.18;;;6.20;99.90;;;;;;2107810;28;20266;-66
2023/04/17 04:09:35;;;;;;;23.02;11.07;;;6.30;99.90;;;;;;2096118;28;20219;-66
2023/04/17 04:10:56;;;;;;;25.55;11.27;;;6.20;99.90;;;;;;2100453;28;20195;-65
2023/04/17 04:12:18;;;;;;;20.30;9.55;;;6.10;99.90;;;;;;2102212;28;20195;-66
2023/04/17 04:13:39;;;;;;;25.60;10.63;;;6.10;99.90;;;;;;2103092;28;20277;-66
2023/04/17 04:15:01;;;;;;;21.92;10.32;;;6.10;99.90;;;;;;2106814;28;20304;-67
2023/04/17 04:16:22;;;;;;;18.65;10.43;;;6.00;99.90;;;;;;2114698;28;20221;-67
2023/04/17 04:17:43;;;;;;;25.52;11.48;;;6.20;99.90;;;;;;2112208;28;20204;-66
2023/04/17 04:19:04;;;;;;;28.75;12.35;;;6.20;99.90;;;;;;2096783;28;20254;-66
2023/04/17 04:20:26;;;;;;;22.67;9.98;;;6.30;99.90;;;;;;2099377;28;20226;-66
2023/04/17 04:21:48;;;;;;;24.27;11.15;;;6.40;99.90;;;;;;2117623;28;20548;-65
2023/04/17 04:23:09;;;;;;;22.20;10.82;;;6.40;99.90;;;;;;2121462;28;20204;-66
2023/04/17 04:24:30;;;;;;;22.77;10.60;;;6.50;99.90;;;;;;2121832;27;20224;-67
2023/04/17 04:25:51;;;;;;;19.73;9.55;;;6.50;99.90;;;;;;2121431;28;20570;-67
2023/04/17 04:27:16;;;;;;;22.75;10.00;;;6.40;99.90;;;;;;2120155;27;20583;-67
2023/04/17 04:28:37;;;;;;;20.30;9.95;;;6.40;99.90;;;;;;2122298;27;20269;-65
2023/04/17 04:30:03;;;;;;;22.02;10.13;;;6.30;99.90;;;;;;2114022;28;20247;-66
2023/04/17 04:31:28;;;;;;;21.08;9.63;;;6.30;99.90;;;;;;2120885;27;20192;-67
2023/04/17 04:32:50;;;;;;;21.08;10.82;;;6.40;99.90;;;;;;2114868;28;20193;-66
2023/04/17 04:34:12;;;;;;;20.75;9.68;;;6.30;99.90;;;;;;2103347;28;20192;-67
2023/04/17 04:35:34;;;;;;;22.92;9.93;;;6.30;99.90;;;;;;2110958;27;20212;-67
2023/04/17 04:36:58;;;;;;;20.42;10.73;;;6.20;99.90;;;;;;2113014;28;20255;-68
2023/04/17 04:38:20;;;;;;;20.13;9.43;;;6.20;99.90;;;;;;2117382;27;20182;-67
2023/04/17 04:39:41;;;;;;;22.33;9.93;;;6.20;99.90;;;;;;2104756;28;20207;-67
2023/04/17 04:41:04;;;;;;;23.55;10.50;;;6.20;99.90;;;;;;2112515;28;20217;-67
2023/04/17 04:42:26;;;;;;;20.55;10.45;;;6.10;99.90;;;;;;2104791;28;20194;-67
2023/04/17 04:43:47;;;;;;;21.65;9.48;;;6.20;99.90;;;;;;2111127;28;20190;-67
2023/04/17 04:45:09;;;;;;;19.67;10.25;;;6.30;99.90;;;;;;2118023;27;20661;-67
2023/04/17 04:46:30;;;;;;;20.70;9.40;;;6.40;99.90;;;;;;2105730;28;20226;-67
2023/04/17 04:47:51;;;;;;;20.70;9.80;;;6.40;99.90;;;;;;2110919;28;20210;-67
2023/04/17 04:49:13;;;;;;;19.17;10.10;;;6.40;99.90;;;;;;2112179;28;20222;-67
2023/04/17 04:50:34;;;;;;;23.90;10.35;;;6.30;99.90;;;;;;2094334;28;20242;-67
2023/04/17 04:51:55;;;;;;;23.52;10.45;;;6.30;99.90;;;;;;2107847;28;20795;-67
2023/04/17 04:53:16;;;;;;;26.88;15.50;;;6.30;99.90;;;;;;2105406;28;20183;-67
2023/04/17 04:54:37;;;;;;;22.08;10.55;;;6.40;99.90;;;;;;2103324;28;20187;-67
2023/04/17 04:55:58;;;;;;;25.17;12.60;;;6.20;99.90;;;;;;2107139;28;20724;-67
2023/04/17 04:57:19;;;;;;;24.08;10.88;;;6.10;99.90;;;;;;2110966;27;20198;-67
2023/04/17 04:58:41;;;;;;;23.50;10.60;;;6.10;99.90;;;;;;2117993;27;20217;-68
2023/04/17 05:00:07;;;;;;;19.17;9.85;;;6.20;99.90;;;;;;2113499;27;20197;-67
2023/04/17 05:01:29;;;;;;;21.30;10.98;;;6.10;99.90;;;;;;2107107;28;20755;-68
2023/04/17 05:02:50;;;;;;;20.95;10.45;;;6.10;99.90;;;;;;2118440;27;20201;-67
2023/04/17 05:04:11;;;;;;;23.42;11.88;;;6.20;99.90;;;;;;2112733;28;20197;-67
2023/04/17 05:05:32;;;;;;;21.75;10.70;;;6.20;99.90;;;;;;2117062;27;20615;-67
2023/04/17 05:06:54;;;;;;;19.83;10.90;;;6.20;99.90;;;;;;2115521;27;20691;-67
2023/04/17 05:08:15;;;;;;;29.40;14.77;;;6.20;99.90;;;;;;2107595;27;20198;-67
2023/04/17 05:09:36;;;;;;;36.67;21.23;;;6.20;99.90;;;;;;2115938;27;20253;-67
2023/04/17 05:10:57;;;;;;;27.75;16.42;;;6.30;99.90;;;;;;2111198;28;20217;-68
2023/04/17 05:12:18;;;;;;;24.58;12.27;;;6.40;99.90;;;;;;2116081;27;20186;-67
2023/04/17 05:13:41;;;;;;;20.10;11.20;;;6.60;99.90;;;;;;2109076;28;20205;-66
2023/04/17 05:15:02;;;;;;;21.58;11.80;;;6.60;99.90;;;;;;2101851;28;20266;-66
2023/04/17 05:16:23;;;;;;;21.02;10.27;;;6.70;99.90;;;;;;2103870;28;20274;-67
2023/04/17 05:17:44;;;;;;;22.60;10.63;;;6.70;99.90;;;;;;2115476;27;20197;-67
2023/04/17 05:19:05;;;;;;;22.65;10.88;;;6.70;99.90;;;;;;2105653;28;20213;-66
2023/04/17 05:20:26;;;;;;;26.10;11.85;;;6.60;99.90;;;;;;2099680;28;20183;-66
2023/04/17 05:21:47;;;;;;;25.50;12.48;;;6.40;99.90;;;;;;2109624;28;20233;-68
2023/04/17 05:23:09;;;;;;;34.05;13.23;;;6.30;99.90;;;;;;2118793;27;20208;-67
2023/04/17 05:24:30;;;;;;;37.10;12.98;;;6.20;99.90;;;;;;2116935;27;20247;-66
2023/04/17 05:25:51;;;;;;;24.83;11.95;;;6.20;99.90;;;;;;2115945;27;20243;-66
2023/04/17 05:27:12;;;;;;;24.75;11.10;;;6.20;99.90;;;;;;2113908;28;20195;-66
2023/04/17 05:28:33;;;;;;;23.33;10.55;;;6.20;99.90;;;;;;2114013;27;20182;-66
2023/04/17 05:29:54;;;;;;;28.83;11.70;;;6.20;99.90;;;;;;2109638;28;20235;-65
2023/04/17 05:31:15;;;;;;;24.52;9.93;;;6.20;99.90;;;;;;2115562;27;20187;-66
2023/04/17 05:32:37;;;;;;;22.40;10.35;;;6.20;99.90;;;;;;2114535;27;20190;-66
2023/04/17 05:33:58;;;;;;;22.98;10.18;;;6.10;99.90;;;;;;2118387;27;20686;-67
2023/04/17 05:35:19;;;;;;;18.92;9.50;;;6.30;99.90;;;;;;2117632;27;20193;-66
2023/04/17 05:36:40;;;;;;;25.75;10.77;;;6.30;99.90;;;;;;2114265;28;20632;-65
2023/04/17 05:38:02;;;;;;;19.92;9.85;;;6.20;99.90;;;;;;2107124;28;20232;-67
2023/04/17 05:39:23;;;;;;;21.80;10.63;;;6.20;99.90;;;;;;2117657;27;20209;-66
2023/04/17 05:40:47;;;;;;;21.02;10.50;;;6.10;99.90;;;;;;2117602;27;20198;-66
2023/04/17 05:42:08;;;;;;;26.38;10.00;;;6.20;99.90;;;;;;2107070;28;20191;-67
2023/04/17 05:43:29;;;;;;;30.45;12.82;;;6.40;99.90;;;;;;2112772;27;20213;-67
2023/04/17 05:44:51;;;;;;;17.70;9.98;;;6.30;99.90;;;;;;2120132;27;20204;-66
2023/04/17 05:46:12;;;;;;;24.20;10.95;;;6.30;99.90;;;;;;2109144;28;20218;-66
2023/04/17 05:47:33;;;;;;;25.75;13.10;;;6.40;99.90;;;;;;2111965;27;20402;-66
2023/04/17 05:48:54;;;;;;;23.83;10.93;;;6.40;99.90;;;;;;2109243;28;20197;-66
2023/04/17 05:50:15;;;;;;;22.95;10.23;;;6.40;99.90;;;;;;2109469;28;20226;-65
2023/04/17 05:51:36;;;;;;;19.65;9.95;;;6.30;99.90;;;;;;2109180;28;20190;-66
2023/04/17 05:52:57;;;;;;;32.80;11.95;;;6.40;99.90;;;;;;2103818;28;20193;-66
2023/04/17 05:54:18;;;;;;;23.00;11.27;;;6.50;99.90;;;;;;2110114;28;20225;-66
2023/04/17 05:55:39;;;;;;;29.65;11.88;;;6.50;99.90;;;;;;2106400;28;20193;-67
2023/04/17 05:57:02;;;;;;;29.48;12.40;;;6.40;99.90;;;;;;2108617;28;20201;-66
2023/04/17 05:58:23;;;;;;;32.15;13.18;;;6.50;99.90;;;;;;2104453;28;20628;-66
2023/04/17 05:59:45;;;;;;;25.20;10.77;;;6.50;99.90;;;;;;2103686;28;20190;-66
2023/04/17 06:01:06;;;;;;;25.65;11.38;;;6.40;99.90;;;;;;2106904;28;20786;-66
2023/04/17 06:02:27;;;;;;;22.85;11.93;;;6.30;99.90;;;;;;2109917;28;20189;-66
2023/04/17 06:03:49;;;;;;;30.23;12.32;;;6.30;99.90;;;;;;2110172;28;20660;-66
2023/04/17 06:05:11;;;;;;;20.55;9.55;;;6.30;99.90;;;;;;2118321;27;20191;-65
2023/04/17 06:06:32;;;;;;;23.25;10.82;;;6.30;99.90;;;;;;2113987;28;20748;-66
2023/04/17 06:07:53;;;;;;;25.33;12.43;;;6.40;99.90;;;;;;2109045;28;20193;-66
2023/04/17 06:09:14;;;;;;;21.52;10.75;;;6.50;99.90;;;;;;2113757;27;20216;-66
2023/04/17 06:10:35;;;;;;;24.65;10.50;;;6.50;99.90;;;;;;2109022;28;20213;-66
2023/04/17 06:11:57;;;;;;;22.50;11.13;;;6.60;99.90;;;;;;2108214;27;20199;-65
2023/04/17 06:13:18;;;;;;;21.85;10.70;;;6.60;99.90;;;;;;2108609;28;20692;-66
2023/04/17 06:14:39;;;;;;;21.25;9.32;;;6.60;99.90;;;;;;2108884;28;20627;-65
2023/04/17 06:16:00;;;;;;;32.33;12.75;;;6.50;99.90;;;;;;2115313;27;20216;-66
2023/04/17 06:17:23;;;;;;;23.25;10.20;;;6.40;99.90;;;;;;2117609;27;20715;-67
2023/04/17 06:18:44;;;;;;;23.67;9.63;;;6.50;99.90;;;;;;2114826;27;20281;-65
2023/04/17 06:20:09;;;;;;;25.23;10.95;;;6.50;99.90;;;;;;2119165;27;20197;-65
2023/04/17 06:21:31;;;;;;;26.17;11.10;;;6.50;99.90;;;;;;2113352;28;20194;-66
2023/04/17 06:22:54;;;;;;;22.02;11.65;;;6.60;99.90;;;;;;2118317;27;20634;-66
2023/04/17 06:24:15;;;;;;;25.00;10.32;;;6.50;99.90;;;;;;2117325;27;20201;-68
2023/04/17 06:25:36;;;;;;;23.83;10.57;;;6.50;99.90;;;;;;2120238;27;20186;-66
2023/04/17 06:26:57;;;;;;;26.90;10.90;;;6.40;99.90;;;;;;2112530;28;20220;-66
2023/04/17 06:28:18;;;;;;;28.15;11.20;;;6.40;99.90;;;;;;2116248;27;20194;-66
2023/04/17 06:29:40;;;;;;;30.17;11.73;;;6.50;99.90;;;;;;2113699;28;20213;-65
2023/04/17 06:31:01;;;;;;;32.30;13.75;;;6.70;99.90;;;;;;2117014;27;20583;-66
2023/04/17 06:32:23;;;;;;;23.23;10.77;;;6.70;99.90;;;;;;2105113;28;20603;-65
2023/04/17 06:33:44;;;;;;;28.10;11.20;;;6.70;99.90;;;;;;2109688;28;20194;-65
2023/04/17 06:35:06;;;;;;;36.20;12.07;;;6.70;99.90;;;;;;2113360;28;20198;-65
2023/04/17 06:36:27;;;;;;;33.80;11.73;;;6.70;99.90;;;;;;2116921;27;20721;-66
2023/04/17 06:37:48;;;;;;;37.67;12.20;;;6.70;99.90;;;;;;2117685;27;20189;-65
2023/04/17 06:39:09;;;;;;;41.67;13.07;;;6.90;99.90;;;;;;2113420;28;20690;-65
2023/04/17 06:40:31;;;;;;;34.58;12.30;;;6.80;99.90;;;;;;2103833;28;20287;-66
2023/04/17 06:41:53;;;;;;;21.95;10.40;;;6.60;99.90;;;;;;2111613;28;20221;-66
2023/04/17 06:43:16;;;;;;;27.83;11.70;;;6.60;99.90;;;;;;2111152;28;20193;-65
2023/04/17 06:44:37;;;;;;;20.27;9.57;;;6.70;99.90;;;;;;2105019;28;20202;-65
2023/04/17 06:45:58;;;;;;;33.45;11.88;;;6.80;99.90;;;;;;2110903;28;20214;-66
2023/04/17 06:47:19;;;;;;;23.17;10.68;;;6.80;99.90;;;;;;2112163;28;20272;-66
2023/04/17 06:48:40;;;;;;;21.92;10.88;;;6.90;99.90;;;;;;2110825;28;20210;-66
2023/04/17 06:50:02;;;;;;;24.10;8.77;;;6.90;99.90;;;;;;2118764;27;20185;-65
2023/04/17 06:51:24;;;;;;;25.95;10.35;;;7.00;99.90;;;;;;2093554;28;20741;-66
2023/04/17 06:52:45;;;;;;;22.58;10.55;;;7.00;99.90;;;;;;2112251;27;20189;-66
2023/04/17 06:54:08;;;;;;;23.77;9.50;;;7.00;99.90;;;;;;2104150;28;20653;-65
2023/04/17 06:55:29;;;;;;;23.35;10.25;;;7.10;99.90;;;;;;2108755;28;20233;-65
2023/04/17 06:56:51;;;;;;;21.33;10.80;;;7.00;99.90;;;;;;2113876;27;20190;-67
2023/04/17 06:58:12;;;;;;;24.85;10.73;;;7.00;99.90;;;;;;2108571;28;20195;-68
2023/04/17 06:59:35;;;;;;;22.15;10.98;;;6.90;99.90;;;;;;2106207;28;20275;-65
2023/04/17 07:00:56;;;;;;;21.77;9.90;;;6.80;99.90;;;;;;2114432;27;20195;-65
2023/04/17 07:02:18;;;;;;;16.58;8.23;;;6.80;99.90;;;;;;2122208;27;20302;-65